createdAt,value
2023-05-25T00:01:44.038Z,95287.22
2023-05-25T00:04:17.608Z,95296.31
2023-05-25T00:06:47.709Z,95301.00
2023-05-25T00:09:16.506Z,95233.28
2023-05-25T00:11:44.886Z,95299.09
2023-05-25T00:14:13.216Z,95300.06
2023-05-25T00:16:41.606Z,95299.03
2023-05-25T00:19:10.878Z,95305.53
2023-05-25T00:21:39.361Z,95308.97
2023-05-25T00:24:09.743Z,95317.78
2023-05-25T00:26:38.181Z,95267.25
2023-05-25T00:29:07.336Z,95314.97
2023-05-25T00:31:37.046Z,95304.88
2023-05-25T00:34:05.498Z,95310.06
2023-05-25T00:36:34.738Z,95312.25
2023-05-25T00:39:03.078Z,95303.91
2023-05-25T00:41:33.511Z,95278.53
2023-05-25T00:44:01.809Z,95318.22
2023-05-25T00:46:30.988Z,95318.81
2023-05-25T00:48:59.311Z,95316.88
2023-05-25T00:51:28.509Z,95313.56
2023-05-25T00:53:56.837Z,95320.28
2023-05-25T00:56:30.264Z,95320.66
2023-05-25T00:59:06.372Z,95321.06
2023-05-25T01:01:40.416Z,95298.13
2023-05-25T01:04:10.890Z,95305.69
2023-05-25T01:06:43.718Z,95316.03
2023-05-25T01:09:15.470Z,95322.34
2023-05-25T01:11:45.691Z,95321.38
2023-05-25T01:14:19.693Z,95321.50
2023-05-25T01:16:48.836Z,95316.34
2023-05-25T01:19:17.296Z,95317.09
2023-05-25T01:21:51.655Z,95330.06
2023-05-25T01:24:31.018Z,95299.72
2023-05-25T01:27:22.546Z,95323.00
2023-05-25T01:29:50.882Z,95334.41
2023-05-25T01:32:19.841Z,95326.28
2023-05-25T01:34:49.895Z,95324.88
2023-05-25T01:37:23.457Z,95329.94
2023-05-25T01:39:51.935Z,95323.53
2023-05-25T01:42:20.246Z,95322.63
2023-05-25T01:44:48.610Z,95319.66
2023-05-25T01:47:23.730Z,95329.28
2023-05-25T01:50:01.350Z,95317.19
2023-05-25T01:52:37.535Z,95317.97
2023-05-25T01:55:09.407Z,95323.22
2023-05-25T01:57:40.089Z,95321.94
2023-05-25T02:00:11.253Z,95324.19
2023-05-25T02:02:42.025Z,95330.75
2023-05-25T02:05:11.336Z,95333.44
2023-05-25T02:07:41.018Z,95327.06
2023-05-25T02:10:10.094Z,95340.69
2023-05-25T02:12:38.364Z,95333.38
2023-05-25T02:15:07.498Z,95339.56
2023-05-25T02:17:37.458Z,95342.81
2023-05-25T02:20:07.028Z,95339.97
2023-05-25T02:22:35.456Z,95323.53
2023-05-25T02:25:05.868Z,95341.72
2023-05-25T02:27:34.405Z,95343.50
2023-05-25T02:30:02.789Z,95346.47
2023-05-25T02:32:31.619Z,95341.34
2023-05-25T02:34:59.974Z,95338.56
2023-05-25T02:37:28.336Z,95335.72
2023-05-25T02:39:56.875Z,95317.41
2023-05-25T02:42:26.637Z,95353.81
2023-05-25T02:44:54.932Z,95347.38
2023-05-25T02:47:23.363Z,95342.34
2023-05-25T02:49:52.397Z,95349.75
2023-05-25T02:52:21.388Z,95348.38
2023-05-25T02:54:49.689Z,95348.06
2023-05-25T02:57:17.989Z,95353.56
2023-05-25T02:59:47.694Z,95362.66
2023-05-25T03:02:18.738Z,95356.03
2023-05-25T03:04:47.138Z,95364.06
2023-05-25T03:07:15.706Z,95317.28
2023-05-25T03:09:44.022Z,95373.44
2023-05-25T03:12:12.269Z,95372.31
2023-05-25T03:14:40.627Z,95375.09
2023-05-25T03:17:10.532Z,95382.72
2023-05-25T03:19:38.778Z,95383.88
2023-05-25T03:22:07.116Z,95390.16
2023-05-25T03:24:35.602Z,95391.88
2023-05-25T03:27:03.888Z,95392.31
2023-05-25T03:29:32.171Z,95391.56
2023-05-25T03:32:00.712Z,95400.75
2023-05-25T03:34:30.745Z,95396.19
2023-05-25T03:36:59.135Z,95403.44
2023-05-25T03:39:27.487Z,95393.69
2023-05-25T03:41:56.176Z,95390.59
2023-05-25T03:44:24.373Z,95408.34
2023-05-25T03:46:52.744Z,95412.72
2023-05-25T03:49:21.096Z,95406.88
2023-05-25T03:51:50.750Z,95402.91
2023-05-25T03:54:19.107Z,95401.66
2023-05-25T03:56:47.385Z,95409.06
2023-05-25T03:59:15.776Z,95408.41
2023-05-25T04:01:44.091Z,95412.66
2023-05-25T04:04:12.604Z,95350.22
2023-05-25T04:06:42.816Z,95404.53
2023-05-25T04:09:12.534Z,95404.81
2023-05-25T04:11:40.784Z,95398.44
2023-05-25T04:14:09.078Z,95394.06
2023-05-25T04:16:37.557Z,95401.59
2023-05-25T04:19:06.233Z,95408.91
2023-05-25T04:21:34.521Z,95407.03
2023-05-25T04:24:02.849Z,95415.63
2023-05-25T04:26:32.898Z,95395.19
2023-05-25T04:29:02.012Z,95414.06
2023-05-25T04:31:30.451Z,95407.59
2023-05-25T04:33:59.237Z,95424.25
2023-05-25T04:36:27.964Z,95431.38
2023-05-25T04:38:56.296Z,95418.59
2023-05-25T04:41:25.949Z,95430.06
2023-05-25T04:44:06.918Z,95425.22
2023-05-25T04:46:37.831Z,95417.66
2023-05-25T04:49:06.209Z,95424.97
2023-05-25T04:51:34.548Z,95408.84
2023-05-25T04:54:02.803Z,95416.13
2023-05-25T04:56:31.284Z,95408.66
2023-05-25T04:59:01.099Z,95417.59
2023-05-25T05:01:29.724Z,95417.38
2023-05-25T05:03:58.400Z,95405.03
2023-05-25T05:06:26.770Z,95346.22
2023-05-25T05:08:55.047Z,95409.81
2023-05-25T05:11:23.767Z,95401.53
2023-05-25T05:13:52.120Z,95363.84
2023-05-25T05:16:21.882Z,95397.78
2023-05-25T05:18:50.306Z,95403.38
2023-05-25T05:21:19.071Z,95396.59
2023-05-25T05:23:48.257Z,95391.72
2023-05-25T05:26:17.718Z,95395.03
2023-05-25T05:28:46.061Z,95397.34
2023-05-25T05:31:14.608Z,95394.97
2023-05-25T05:33:44.373Z,95397.06
2023-05-25T05:36:12.654Z,95395.44
2023-05-25T05:38:41.713Z,95388.50
2023-05-25T05:41:14.176Z,95384.78
2023-05-25T05:43:43.871Z,95380.16
2023-05-25T05:46:12.227Z,95375.78
2023-05-25T05:48:40.614Z,95381.03
2023-05-25T05:51:10.299Z,95382.56
2023-05-25T05:53:39.588Z,95378.94
2023-05-25T05:56:08.051Z,95376.44
2023-05-25T05:58:36.399Z,95368.53
2023-05-25T06:01:04.719Z,95357.97
2023-05-25T06:03:33.085Z,95369.47
2023-05-25T06:06:01.953Z,95373.34
2023-05-25T06:08:31.681Z,95356.41
2023-05-25T06:11:00.045Z,95375.94
2023-05-25T06:13:28.428Z,95367.13
2023-05-25T06:15:56.785Z,95368.78
2023-05-25T06:18:34.308Z,95355.91
2023-05-25T06:21:02.815Z,95357.00
2023-05-25T06:23:32.557Z,95349.50
2023-05-25T06:26:05.307Z,95355.63
2023-05-25T06:28:33.920Z,95309.31
2023-05-25T06:31:02.210Z,95350.44
2023-05-25T06:33:30.487Z,95343.50
2023-05-25T06:36:00.784Z,95342.22
2023-05-25T06:38:29.775Z,95350.56
2023-05-25T06:41:03.299Z,95342.84
2023-05-25T06:43:32.358Z,95342.13
2023-05-25T06:46:00.853Z,95339.47
2023-05-25T06:48:29.193Z,95344.38
2023-05-25T06:50:57.534Z,95342.28
2023-05-25T06:53:25.811Z,95336.59
2023-05-25T06:55:54.156Z,95329.41
2023-05-25T06:58:23.830Z,95330.78
2023-05-25T07:00:52.413Z,95315.44
2023-05-25T07:03:21.118Z,95320.28
2023-05-25T07:05:49.551Z,95319.97
2023-05-25T07:08:17.886Z,95316.16
2023-05-25T07:10:47.117Z,95317.50
2023-05-25T07:13:16.949Z,95308.81
2023-05-25T07:15:47.578Z,95296.47
2023-05-25T07:18:16.389Z,95316.84
2023-05-25T07:20:44.692Z,95308.09
2023-05-25T07:23:13.295Z,95304.97
2023-05-25T07:25:42.961Z,95300.72
2023-05-25T07:28:11.454Z,95296.75
2023-05-25T07:30:41.668Z,95290.88
2023-05-25T07:33:11.346Z,95290.13
2023-05-25T07:35:39.722Z,95293.75
2023-05-25T07:38:08.007Z,95281.75
2023-05-25T07:40:36.849Z,95297.91
2023-05-25T07:43:08.155Z,95293.38
2023-05-25T07:45:36.758Z,95286.38
2023-05-25T07:48:07.224Z,95288.00
2023-05-25T07:50:37.057Z,95274.63
2023-05-25T07:53:05.323Z,95276.13
2023-05-25T07:55:33.657Z,95272.50
2023-05-25T07:58:01.949Z,95241.31
2023-05-25T08:00:30.301Z,95267.03
2023-05-25T08:02:58.638Z,95263.16
2023-05-25T08:05:27.078Z,95275.91
2023-05-25T08:07:56.852Z,95272.22
2023-05-25T08:10:31.494Z,95267.38
2023-05-25T08:12:59.996Z,95262.69
2023-05-25T08:15:28.466Z,95262.41
2023-05-25T08:17:57.204Z,95259.25
2023-05-25T08:20:26.267Z,95257.16
2023-05-25T08:22:54.910Z,95250.00
2023-05-25T08:25:24.709Z,95246.47
2023-05-25T08:27:53.178Z,95249.22
2023-05-25T08:30:21.550Z,95243.41
2023-05-25T08:32:49.925Z,95243.50
2023-05-25T08:35:18.863Z,95245.84
2023-05-25T08:37:47.164Z,95250.66
2023-05-25T08:40:18.352Z,95243.13
2023-05-25T08:42:48.116Z,95236.47
2023-05-25T08:45:30.563Z,95237.69
2023-05-25T08:48:03.257Z,95227.09
2023-05-25T08:50:33.824Z,95232.22
2023-05-25T08:53:06.516Z,95232.53
2023-05-25T08:55:39.106Z,95227.94
2023-05-25T08:58:16.409Z,95172.13
2023-05-25T09:00:50.856Z,95216.59
2023-05-25T09:03:19.361Z,95213.84
2023-05-25T09:05:48.597Z,95173.97
2023-05-25T09:08:18.275Z,95213.09
2023-05-25T09:10:46.716Z,95215.66
2023-05-25T09:15:48.491Z,95200.22
2023-05-25T09:18:16.893Z,95206.72
2023-05-25T09:20:46.930Z,95190.75
2023-05-25T09:23:16.567Z,95201.72
2023-05-25T09:25:45.801Z,95188.88
2023-05-25T09:30:47.460Z,95202.53
2023-05-25T09:33:18.143Z,95184.97
2023-05-25T09:35:47.138Z,95201.06
2023-05-25T09:38:17.293Z,95195.03
2023-05-25T09:40:46.467Z,95194.91
2023-05-25T09:43:28.274Z,95193.75
2023-05-25T09:46:01.150Z,95151.44
2023-05-25T09:48:30.548Z,95191.59
2023-05-25T09:50:59.179Z,95194.38
2023-05-25T09:53:28.310Z,95201.41
2023-05-25T09:55:57.852Z,95192.81
2023-05-25T09:58:28.293Z,95192.03
2023-05-25T10:00:56.668Z,95190.31
2023-05-25T10:03:25.010Z,95190.19
2023-05-25T10:05:54.777Z,95166.88
2023-05-25T10:08:28.604Z,95181.84
2023-05-25T10:10:57.319Z,95179.06
2023-05-25T10:13:30.719Z,95178.19
2023-05-25T10:16:00.506Z,95185.41
2023-05-25T10:18:34.124Z,95129.59
2023-05-25T10:21:05.522Z,95186.16
2023-05-25T10:23:40.410Z,95172.44
2023-05-25T10:26:11.091Z,95165.38
2023-05-25T10:28:43.196Z,95171.69
2023-05-25T10:31:12.184Z,95161.84
2023-05-25T10:33:40.913Z,95164.59
2023-05-25T10:36:13.723Z,95164.00
2023-05-25T10:38:44.849Z,95144.81
2023-05-25T10:41:13.355Z,95152.13
2023-05-25T10:43:44.418Z,95146.94
2023-05-25T10:46:15.192Z,95147.19
2023-05-25T10:48:48.679Z,95135.94
2023-05-25T10:51:16.998Z,95138.06
2023-05-25T10:53:46.572Z,95134.19
2023-05-25T10:56:15.651Z,95127.22
2023-05-25T10:58:47.614Z,95110.00
2023-05-25T11:01:17.095Z,95121.59
2023-05-25T11:03:59.006Z,95125.03
2023-05-25T11:07:00.711Z,95120.63
2023-05-25T11:09:31.636Z,95125.06
2023-05-25T11:12:04.135Z,95126.72
2023-05-25T11:14:37.290Z,95127.34
2023-05-25T11:17:08.419Z,95134.38
2023-05-25T11:19:50.614Z,95139.03
2023-05-25T11:22:21.429Z,95140.00
2023-05-25T11:24:50.422Z,95148.97
2023-05-25T11:27:23.934Z,95153.13
2023-05-25T11:29:54.725Z,95111.38
2023-05-25T11:32:23.177Z,95148.97
2023-05-25T11:34:54.175Z,95141.84
2023-05-25T11:37:24.976Z,94972.53
2023-05-25T11:39:54.153Z,95118.84
2023-05-25T11:42:24.268Z,95127.34
2023-05-25T11:44:54.020Z,95139.06
2023-05-25T11:47:25.481Z,95128.03
2023-05-25T11:49:57.052Z,95125.69
2023-05-25T11:52:25.398Z,95146.84
2023-05-25T11:54:54.237Z,95153.88
2023-05-25T11:57:25.393Z,95163.78
2023-05-25T11:59:57.469Z,95168.47
2023-05-25T12:02:26.249Z,95139.56
2023-05-25T12:04:56.361Z,95193.34
2023-05-25T12:07:26.444Z,95199.13
2023-05-25T12:10:06.336Z,95227.06
2023-05-25T12:12:41.416Z,95229.03
2023-05-25T12:15:13.163Z,95236.09
2023-05-25T12:17:43.755Z,95253.44
2023-05-25T12:20:13.865Z,95236.47
2023-05-25T12:22:43.716Z,95271.25
2023-05-25T12:25:13.824Z,95270.34
2023-05-25T12:27:42.800Z,95268.44
2023-05-25T12:30:13.397Z,95277.84
2023-05-25T12:33:04.138Z,95231.16
2023-05-25T12:35:46.824Z,95279.56
2023-05-25T12:38:16.783Z,95255.34
2023-05-25T12:40:45.591Z,95278.81
2023-05-25T12:43:14.447Z,95286.25
2023-05-25T12:45:44.581Z,95285.38
2023-05-25T12:48:13.045Z,95275.72
2023-05-25T12:50:58.349Z,95267.78
2023-05-25T12:53:27.403Z,95283.59
2023-05-25T12:56:02.661Z,95279.44
2023-05-25T12:58:30.967Z,95291.09
2023-05-25T13:01:00.930Z,95288.34
2023-05-25T13:03:29.350Z,95287.06
2023-05-25T13:06:02.534Z,95304.56
2023-05-25T13:08:31.204Z,95304.09
2023-05-25T13:11:00.252Z,95302.94
2023-05-25T13:13:28.524Z,95302.41
2023-05-25T13:15:58.447Z,95292.44
2023-05-25T13:18:28.241Z,95294.53
2023-05-25T13:20:57.305Z,95302.72
2023-05-25T13:23:25.929Z,95297.25
2023-05-25T13:25:54.263Z,95305.72
2023-05-25T13:28:22.486Z,95313.91
2023-05-25T13:30:50.839Z,95310.72
2023-05-25T13:33:19.175Z,95319.03
2023-05-25T13:35:58.593Z,95317.03
2023-05-25T13:38:27.701Z,95315.13
2023-05-25T13:40:56.010Z,95312.72
2023-05-25T13:43:24.427Z,95305.97
2023-05-25T13:45:52.838Z,95319.88
2023-05-25T13:48:21.416Z,95302.22
2023-05-25T13:50:51.143Z,95302.75
2023-05-25T13:53:19.394Z,95321.91
2023-05-25T13:55:47.941Z,95304.34
2023-05-25T13:58:16.341Z,95302.84
2023-05-25T14:00:44.965Z,95298.88
2023-05-25T14:03:14.222Z,95288.97
2023-05-25T14:05:42.748Z,95291.56
2023-05-25T14:08:12.903Z,95298.66
2023-05-25T14:10:43.542Z,95283.94
2023-05-25T14:13:12.025Z,95293.44
2023-05-25T14:15:40.328Z,95302.00
2023-05-25T14:18:08.748Z,95312.34
2023-05-25T14:20:38.746Z,95309.09
2023-05-25T14:23:07.066Z,95315.91
2023-05-25T14:25:36.706Z,95302.88
2023-05-25T14:28:05.048Z,95317.16
2023-05-25T14:30:33.387Z,95315.47
2023-05-25T14:33:01.773Z,95322.00
2023-05-25T14:35:30.176Z,95320.44
2023-05-25T14:37:58.427Z,95323.22
2023-05-25T14:40:26.740Z,95277.78
2023-05-25T14:42:56.754Z,95326.03
2023-05-25T14:45:25.082Z,95321.09
2023-05-25T14:48:04.000Z,95322.84
2023-05-25T14:50:42.145Z,95274.97
2023-05-25T14:53:10.444Z,95323.13
2023-05-25T14:55:38.749Z,95322.91
2023-05-25T14:58:08.577Z,95317.78
2023-05-25T15:00:36.949Z,95314.97
2023-05-25T15:03:06.040Z,95315.34
2023-05-25T15:05:34.426Z,95323.69
2023-05-25T15:08:02.800Z,95318.09
2023-05-25T15:10:31.204Z,95319.06
2023-05-25T15:12:59.509Z,95318.50
2023-05-25T15:15:29.201Z,95322.00
2023-05-25T15:17:57.573Z,95323.47
2023-05-25T15:20:25.893Z,95312.06
2023-05-25T15:22:54.242Z,95312.81
2023-05-25T15:25:34.900Z,95323.44
2023-05-25T15:28:03.978Z,95331.09
2023-05-25T15:30:53.465Z,95331.94
2023-05-25T15:33:24.104Z,95342.28
2023-05-25T15:35:54.081Z,95341.72
2023-05-25T15:38:22.395Z,95359.88
2023-05-25T15:40:50.743Z,95361.28
2023-05-25T15:43:19.054Z,95371.16
2023-05-25T15:45:48.836Z,95363.09
2023-05-25T15:48:17.275Z,95364.28
2023-05-25T15:50:45.736Z,95370.81
2023-05-25T15:53:14.058Z,95377.66
2023-05-25T15:55:42.493Z,95377.47
2023-05-25T15:58:11.519Z,95381.28
2023-05-25T16:00:39.785Z,95385.53
2023-05-25T16:03:09.619Z,95377.69
2023-05-25T16:05:37.994Z,95373.06
2023-05-25T16:08:06.311Z,95366.09
2023-05-25T16:10:34.656Z,95361.41
2023-05-25T16:13:02.947Z,95356.06
2023-05-25T16:15:31.270Z,95354.78
2023-05-25T16:18:00.640Z,95354.97
2023-05-25T16:20:30.370Z,95350.69
2023-05-25T16:22:58.752Z,95349.91
2023-05-25T16:25:27.112Z,95347.22
2023-05-25T16:27:55.386Z,95347.69
2023-05-25T16:30:23.858Z,95334.59
2023-05-25T16:32:52.209Z,95325.13
2023-05-25T16:35:20.903Z,95327.31
2023-05-25T16:37:50.669Z,95317.94
2023-05-25T16:40:18.996Z,95323.59
2023-05-25T16:42:47.320Z,95324.81
2023-05-25T16:45:15.946Z,95324.41
2023-05-25T16:47:44.317Z,95329.63
2023-05-25T16:50:12.881Z,95322.69
2023-05-25T16:52:41.872Z,95327.25
2023-05-25T16:55:11.701Z,95330.75
2023-05-25T16:57:40.018Z,95329.75
2023-05-25T17:00:09.667Z,95337.13
2023-05-25T17:02:38.056Z,95334.13
2023-05-25T17:05:07.157Z,95337.75
2023-05-25T17:07:35.801Z,95323.69
2023-05-25T17:10:04.225Z,95341.38
2023-05-25T17:12:34.034Z,95345.63
2023-05-25T17:15:02.420Z,95340.28
2023-05-25T17:17:30.797Z,95342.78
2023-05-25T17:19:59.297Z,95345.31
2023-05-25T17:22:27.739Z,95353.03
2023-05-25T17:24:56.111Z,95367.56
2023-05-25T17:27:24.509Z,95367.88
2023-05-25T17:29:54.273Z,95381.41
2023-05-25T17:32:22.502Z,95372.94
2023-05-25T17:34:50.836Z,95384.75
2023-05-25T17:37:20.932Z,95384.22
2023-05-25T17:39:49.518Z,95378.38
2023-05-25T17:42:17.965Z,95388.72
2023-05-25T17:44:46.266Z,95390.09
2023-05-25T17:47:15.993Z,95387.00
2023-05-25T17:49:44.426Z,95390.94
2023-05-25T17:52:12.838Z,95394.75
2023-05-25T17:54:41.117Z,95393.94
2023-05-25T17:57:09.751Z,95393.25
2023-05-25T17:59:38.042Z,95403.31
2023-05-25T18:02:06.821Z,95400.34
2023-05-25T18:04:36.582Z,95389.53
2023-05-25T18:07:04.994Z,95383.97
2023-05-25T18:09:33.414Z,95388.78
2023-05-25T18:12:01.783Z,95397.13
2023-05-25T18:14:35.317Z,95389.13
2023-05-25T18:17:03.697Z,95386.50
2023-05-25T18:19:32.102Z,95385.31
2023-05-25T18:22:01.852Z,95386.47
2023-05-25T18:24:30.193Z,95384.94
2023-05-25T18:26:59.814Z,95392.50
2023-05-25T18:29:29.111Z,95398.28
2023-05-25T18:31:57.375Z,95234.09
2023-05-25T18:34:25.759Z,95405.09
2023-05-25T18:36:54.112Z,95404.63
2023-05-25T18:39:23.835Z,95399.38
2023-05-25T18:41:52.146Z,95397.13
2023-05-25T18:44:20.740Z,95400.28
2023-05-25T18:46:51.907Z,95329.94
2023-05-25T18:49:20.274Z,95399.94
2023-05-25T18:51:48.580Z,95398.88
2023-05-25T18:54:16.965Z,95399.50
2023-05-25T18:56:46.711Z,95399.66
2023-05-25T18:59:15.123Z,95384.22
2023-05-25T19:01:43.461Z,95406.22
2023-05-25T19:04:11.834Z,95399.78
2023-05-25T19:06:40.211Z,95396.31
2023-05-25T19:09:08.482Z,95403.25
2023-05-25T19:11:36.805Z,95402.34
2023-05-25T19:14:06.558Z,95405.97
2023-05-25T19:16:34.968Z,95416.75
2023-05-25T19:19:03.286Z,95433.59
2023-05-25T19:21:31.685Z,95435.16
2023-05-25T19:24:00.055Z,95436.44
2023-05-25T19:26:28.297Z,95429.03
2023-05-25T19:28:57.476Z,95428.16
2023-05-25T19:31:27.226Z,95438.03
2023-05-25T19:33:55.588Z,95433.03
2023-05-25T19:36:23.960Z,95434.16
2023-05-25T19:38:52.255Z,95437.19
2023-05-25T19:41:20.561Z,95438.72
2023-05-25T19:43:48.982Z,95430.19
2023-05-25T19:46:17.349Z,95449.59
2023-05-25T19:48:47.103Z,95443.25
2023-05-25T19:51:15.416Z,95453.22
2023-05-25T19:53:43.778Z,95453.22
2023-05-25T19:56:12.028Z,95466.91
2023-05-25T19:58:40.381Z,95461.22
2023-05-25T20:01:08.864Z,95464.22
2023-05-25T20:03:37.350Z,95459.69
2023-05-25T20:06:07.522Z,95464.25
2023-05-25T20:08:36.972Z,95457.72
2023-05-25T20:11:05.474Z,95447.25
2023-05-25T20:13:33.903Z,95458.38
2023-05-25T20:16:02.366Z,95442.22
2023-05-25T20:18:30.680Z,95448.47
2023-05-25T20:20:59.006Z,95442.16
2023-05-25T20:23:28.689Z,95441.56
2023-05-25T20:25:57.027Z,95439.97
2023-05-25T20:28:25.360Z,95435.59
2023-05-25T20:30:53.739Z,95434.66
2023-05-25T20:33:22.133Z,95423.69
2023-05-25T20:35:50.350Z,95423.72
2023-05-25T20:38:18.669Z,95420.91
2023-05-25T20:40:48.456Z,95437.75
2023-05-25T20:43:16.730Z,95420.53
2023-05-25T20:45:45.187Z,95412.31
2023-05-25T20:48:13.742Z,95411.34
2023-05-25T20:50:42.004Z,95406.34
2023-05-25T20:53:10.902Z,95407.63
2023-05-25T20:55:39.351Z,95402.50
2023-05-25T20:58:09.077Z,95405.25
2023-05-25T21:00:37.486Z,95400.78
2023-05-25T21:03:08.596Z,95405.59
2023-05-25T21:05:38.234Z,95411.69
2023-05-25T21:08:06.480Z,95403.22
2023-05-25T21:10:34.962Z,95396.69
2023-05-25T21:13:03.259Z,95401.44
2023-05-25T21:15:32.994Z,95407.06
2023-05-25T21:18:03.560Z,95404.88
2023-05-25T21:20:32.025Z,95404.13
2023-05-25T21:23:00.860Z,95395.13
2023-05-25T21:25:29.243Z,95392.50
2023-05-25T21:27:57.547Z,95386.03
2023-05-25T21:30:25.784Z,95391.84
2023-05-25T21:32:55.556Z,95374.72
2023-05-25T21:35:23.911Z,95382.91
2023-05-25T21:37:52.181Z,95391.78
2023-05-25T21:40:20.543Z,95375.19
2023-05-25T21:42:51.118Z,95382.59
2023-05-25T21:45:19.742Z,95368.44
2023-05-25T21:47:48.254Z,95366.66
2023-05-25T21:50:18.175Z,95369.03
2023-05-25T21:52:46.539Z,95367.19
2023-05-25T21:55:14.823Z,95366.22
2023-05-25T21:57:43.138Z,95358.75
2023-05-25T22:00:12.881Z,95374.63
2023-05-25T22:02:41.621Z,95376.28
2023-05-25T22:05:10.074Z,95377.84
2023-05-25T22:07:39.758Z,95362.03
2023-05-25T22:10:09.338Z,95384.72
2023-05-25T22:12:37.579Z,95383.06
2023-05-25T22:15:07.171Z,95383.00
2023-05-25T22:17:35.524Z,95392.53
2023-05-25T22:20:07.841Z,95385.75
2023-05-25T22:22:37.477Z,95382.03
2023-05-25T22:25:07.910Z,95370.78
2023-05-25T22:27:36.313Z,95377.19
2023-05-25T22:30:04.963Z,95391.13
2023-05-25T22:32:33.261Z,95386.31
2023-05-25T22:35:01.638Z,95384.28
2023-05-25T22:37:30.002Z,95395.16
2023-05-25T22:39:58.246Z,95388.47
2023-05-25T22:42:27.982Z,95372.53
2023-05-25T22:44:56.259Z,95370.22
2023-05-25T22:47:24.593Z,95378.44
2023-05-25T22:49:53.066Z,95377.53
2023-05-25T22:52:21.402Z,95366.47
2023-05-25T22:54:49.636Z,95383.09
2023-05-25T22:57:18.013Z,95374.03
2023-05-25T22:59:47.686Z,95378.09
2023-05-25T23:02:15.937Z,95377.13
2023-05-25T23:04:44.411Z,95365.41
2023-05-25T23:07:12.910Z,95358.75
2023-05-25T23:09:41.155Z,95369.16
2023-05-25T23:12:09.664Z,95379.38
2023-05-25T23:14:37.896Z,95364.63
2023-05-25T23:17:07.624Z,95363.31
2023-05-25T23:19:35.922Z,95373.66
2023-05-25T23:22:04.200Z,95371.41
2023-05-25T23:24:32.572Z,95365.28
2023-05-25T23:27:01.033Z,95368.41
2023-05-25T23:29:29.524Z,95369.97
2023-05-25T23:31:57.932Z,95373.00
2023-05-25T23:34:27.700Z,95369.38
2023-05-25T23:36:58.272Z,95369.22
2023-05-25T23:39:26.691Z,95363.69
2023-05-25T23:41:55.013Z,95360.47
2023-05-25T23:44:23.296Z,95366.22
2023-05-25T23:46:52.129Z,95347.72
2023-05-25T23:49:20.529Z,95352.28
2023-05-25T23:51:50.318Z,95360.53
2023-05-25T23:54:18.612Z,95365.44
2023-05-25T23:56:46.943Z,95358.69
2023-05-25T23:59:15.594Z,95360.91
